Time;durP1;ratioP1;P1;durP2;ratioP2;P2;SDS_P1;SDS_P2;PMS_P1;PMS_P2;Temp;Humidity;BMP_temperature;BMP_pressure;BME280_temperature;BME280_humidity;BME280_pressure;Samples;Min_cycle;Max_cycle;Signal;HPM_P1;HPM_P2
2022/11/02 00:00:16;;;;;;;8.07;5.50;;;;;;;-144.22;100.00;60274.75;6228103;28;20283;-63
2022/11/02 00:03:18;;;;;;;6.23;5.20;;;;;;;-144.22;100.00;60274.75;6225090;28;20224;-63
2022/11/02 00:06:20;;;;;;;9.73;5.27;;;;;;;-144.22;100.00;60274.75;6235903;28;20587;-63
2022/11/02 00:09:22;;;;;;;7.30;4.67;;;;;;;-144.22;100.00;60274.75;6230524;28;20287;-63
2022/11/02 00:12:24;;;;;;;7.67;5.23;;;;;;;-144.22;100.00;60274.75;6255514;28;20238;-63
2022/11/02 00:15:31;;;;;;;6.93;4.43;;;;;;;-144.22;100.00;60274.75;6237472;28;20703;-63
2022/11/02 00:18:35;;;;;;;8.07;4.57;;;;;;;-144.22;100.00;60274.75;6228636;28;20364;-63
2022/11/02 00:21:38;;;;;;;6.50;4.93;;;;;;;-144.22;100.00;60274.75;6242959;28;20674;-63
2022/11/02 00:24:40;;;;;;;8.13;4.97;;;;;;;-144.22;100.00;60274.75;6226907;28;20226;-63
2022/11/02 00:27:42;;;;;;;6.63;4.87;;;;;;;-144.22;100.00;60274.75;6236637;28;20851;-63
2022/11/02 00:30:44;;;;;;;9.53;4.60;;;;;;;-144.22;100.00;60274.75;6232846;28;20238;-63
2022/11/02 00:33:46;;;;;;;10.03;4.73;;;;;;;-144.22;100.00;60274.75;6256347;28;20238;-63
2022/11/02 00:36:48;;;;;;;6.17;4.27;;;;;;;-144.22;100.00;60274.75;6232228;28;20782;-64
2022/11/02 00:39:56;;;;;;;8.40;4.67;;;;;;;-144.22;100.00;60274.75;6235019;28;20729;-63
2022/11/02 00:42:58;;;;;;;7.10;5.07;;;;;;;-144.22;100.00;60274.75;6223725;28;20672;-63
2022/11/02 00:46:00;;;;;;;7.67;4.90;;;;;;;-144.22;100.00;60274.75;6234916;28;20230;-63
2022/11/02 00:49:02;;;;;;;10.03;5.07;;;;;;;-144.22;100.00;60274.75;6237364;28;20359;-63
2022/11/02 00:52:06;;;;;;;5.50;4.50;;;;;;;-144.22;100.00;60274.75;6214115;28;20714;-64
2022/11/02 00:55:10;;;;;;;7.20;4.60;;;;;;;-144.22;100.00;60274.75;6259022;28;20304;-63
2022/11/02 00:58:15;;;;;;;8.20;4.50;;;;;;;-144.22;100.00;60274.75;6215523;28;20293;-63
2022/11/02 01:01:17;;;;;;;4.80;4.30;;;;;;;-144.22;100.00;60274.75;6217299;28;20277;-63
2022/11/02 01:04:19;;;;;;;4.83;4.10;;;;;;;-144.22;100.00;60274.75;6241389;28;20233;-63
2022/11/02 01:07:21;;;;;;;7.70;4.70;;;;;;;-144.22;100.00;60274.75;6242785;28;20713;-63
2022/11/02 01:10:24;;;;;;;5.63;3.87;;;;;;;-144.22;100.00;60274.75;6214219;28;20235;-64
2022/11/02 01:13:27;;;;;;;6.73;4.43;;;;;;;-144.22;100.00;60274.75;6254980;28;20233;-63
2022/11/02 01:16:29;;;;;;;7.13;4.17;;;;;;;-144.22;100.00;60274.75;6218801;28;20289;-64
2022/11/02 01:19:31;;;;;;;8.17;4.67;;;;;;;-144.22;100.00;60274.75;6233769;28;20268;-63
2022/11/02 01:22:33;;;;;;;9.83;4.17;;;;;;;-144.22;100.00;60274.75;6246441;28;20258;-64
2022/11/02 01:25:35;;;;;;;7.20;4.60;;;;;;;-144.22;100.00;60274.75;6216207;28;20239;-64
2022/11/02 01:28:38;;;;;;;7.07;4.70;;;;;;;-144.22;100.00;60274.75;6224070;28;20285;-63
2022/11/02 01:31:40;;;;;;;8.87;4.10;;;;;;;-144.22;100.00;60274.75;6244792;28;20317;-63
2022/11/02 01:34:42;;;;;;;6.63;4.10;;;;;;;-144.22;100.00;60274.75;6246436;28;20395;-63
2022/11/02 01:37:44;;;;;;;4.93;4.10;;;;;;;-144.22;100.00;60274.75;6256833;28;20635;-63
2022/11/02 01:40:47;;;;;;;5.53;3.60;;;;;;;-144.22;100.00;60274.75;6239701;28;20708;-64
2022/11/02 01:43:53;;;;;;;6.93;4.40;;;;;;;-144.22;100.00;60274.75;6228967;28;20253;-64
2022/11/02 01:47:04;;;;;;;7.07;4.43;;;;;;;-144.22;100.00;60274.75;6242422;28;20324;-63
2022/11/02 01:50:11;;;;;;;9.17;5.20;;;;;;;-144.22;100.00;60274.75;6240035;28;20368;-63
2022/11/02 01:53:14;;;;;;;5.20;3.93;;;;;;;-144.22;100.00;60274.75;6217029;28;20592;-64
2022/11/02 01:56:19;;;;;;;7.47;3.90;;;;;;;-144.22;100.00;60274.75;6246792;28;20325;-63
2022/11/02 01:59:27;;;;;;;8.23;4.30;;;;;;;-144.22;100.00;60274.75;6234677;28;20276;-63
2022/11/02 02:02:31;;;;;;;4.57;3.63;;;;;;;-144.22;100.00;60274.75;6246258;28;20234;-64
2022/11/02 02:05:40;;;;;;;7.23;4.40;;;;;;;-144.22;100.00;60274.75;6231806;28;20223;-64
2022/11/02 02:08:46;;;;;;;7.13;4.13;;;;;;;-144.22;100.00;60274.75;6220830;28;20230;-63
2022/11/02 02:11:48;;;;;;;6.30;4.53;;;;;;;-144.22;100.00;60274.75;6231929;28;20226;-64
2022/11/02 02:14:52;;;;;;;5.10;4.20;;;;;;;-144.22;100.00;60274.75;6231189;28;20322;-63
2022/11/02 02:18:00;;;;;;;5.40;4.27;;;;;;;-144.22;100.00;60274.75;6215289;28;20706;-64
2022/11/02 02:21:21;;;;;;;10.23;4.27;;;;;;;-144.22;100.00;60274.75;6244038;28;20750;-64
2022/11/02 02:24:48;;;;;;;4.50;3.67;;;;;;;-144.22;100.00;60274.75;6233659;28;20599;-63
2022/11/02 02:28:24;;;;;;;5.20;4.00;;;;;;;-144.22;100.00;60274.75;6223991;28;20599;-63
2022/11/02 02:31:36;;;;;;;4.07;3.67;;;;;;;-144.22;100.00;60274.75;6199192;28;20242;-63
2022/11/02 02:34:47;;;;;;;4.50;3.67;;;;;;;-144.22;100.00;60274.75;6216118;28;20434;-64
2022/11/02 02:38:01;;;;;;;6.23;4.30;;;;;;;-144.22;100.00;60274.75;6240633;28;20320;-63
2022/11/02 02:41:22;;;;;;;8.03;4.57;;;;;;;-144.22;100.00;60274.75;6249661;28;20242;-63
2022/11/02 02:44:31;;;;;;;6.30;4.50;;;;;;;-144.22;100.00;60274.75;6224022;28;20223;-63
2022/11/02 02:47:37;;;;;;;8.20;4.40;;;;;;;-144.22;100.00;60274.75;6236420;28;20234;-63
2022/11/02 02:50:46;;;;;;;4.17;3.70;;;;;;;-144.22;100.00;60274.75;6243647;28;20251;-64
2022/11/02 02:53:57;;;;;;;6.77;4.40;;;;;;;-144.22;100.00;60274.75;6234410;28;20326;-63
2022/11/02 02:57:06;;;;;;;5.77;3.40;;;;;;;-144.22;100.00;60274.75;6252251;28;20241;-64
2022/11/02 03:00:15;;;;;;;7.50;4.10;;;;;;;-144.22;100.00;60274.75;6238300;28;20215;-63
2022/11/02 03:03:23;;;;;;;5.07;4.13;;;;;;;-144.22;100.00;60274.75;6242045;28;20261;-63
2022/11/02 03:06:35;;;;;;;6.90;4.20;;;;;;;-144.22;100.00;60274.75;6200843;28;20310;-63
2022/11/02 03:09:54;;;;;;;9.53;4.20;;;;;;;-144.22;100.00;60274.75;6236536;28;20744;-64
2022/11/02 03:13:05;;;;;;;5.83;4.10;;;;;;;-144.22;100.00;60274.75;6228675;28;20263;-64
2022/11/02 03:16:28;;;;;;;7.40;4.23;;;;;;;-144.22;100.00;60274.75;6230066;28;20242;-65
2022/11/02 03:19:42;;;;;;;7.70;4.27;;;;;;;-144.22;100.00;60274.75;6225554;28;20236;-63
2022/11/02 03:23:14;;;;;;;7.50;4.50;;;;;;;-144.22;100.00;60274.75;6232022;28;20226;-63
2022/11/02 03:26:42;;;;;;;4.93;3.70;;;;;;;-144.22;100.00;60274.75;6226367;28;20238;-64
2022/11/02 03:29:53;;;;;;;7.37;4.10;;;;;;;-144.22;100.00;60274.75;6227123;28;20265;-63
2022/11/02 03:33:13;;;;;;;5.03;3.80;;;;;;;-144.22;100.00;60274.75;6253532;28;20258;-64
2022/11/02 03:36:30;;;;;;;5.77;3.60;;;;;;;-144.22;100.00;60274.75;6230709;28;20231;-63
2022/11/02 03:39:37;;;;;;;5.13;3.37;;;;;;;-144.22;100.00;60274.75;6213786;28;20334;-63
2022/11/02 03:42:41;;;;;;;6.60;4.17;;;;;;;-144.22;100.00;60274.75;6217543;28;20239;-64
2022/11/02 03:45:55;;;;;;;5.17;4.13;;;;;;;-144.22;100.00;60274.75;6235110;28;20235;-64
2022/11/02 03:49:01;;;;;;;4.77;3.53;;;;;;;-144.22;100.00;60274.75;6209195;28;20227;-63
2022/11/02 03:52:18;;;;;;;5.30;3.57;;;;;;;-144.22;100.00;60274.75;6236261;28;20260;-63
2022/11/02 03:55:36;;;;;;;6.47;4.10;;;;;;;-144.22;100.00;60274.75;6221303;28;20242;-64
2022/11/02 03:58:38;;;;;;;4.83;3.53;;;;;;;-144.22;100.00;60274.75;6224222;28;20690;-64
2022/11/02 04:01:44;;;;;;;6.50;3.50;;;;;;;-144.22;100.00;60274.75;6240835;28;20278;-64
2022/11/02 04:04:49;;;;;;;4.83;4.10;;;;;;;-144.22;100.00;60274.75;6240709;28;20231;-63
2022/11/02 04:14:41;;;;;;;5.13;3.60;;;;;;;-144.22;100.00;60274.75;6240035;28;20239;-64
2022/11/02 04:21:08;;;;;;;5.37;3.37;;;;;;;-144.22;100.00;60274.75;6239930;28;20227;-63
2022/11/02 04:27:32;;;;;;;6.00;3.17;;;;;;;-144.22;100.00;60274.75;6242645;28;20232;-63
2022/11/02 04:30:34;;;;;;;4.33;3.50;;;;;;;-144.22;100.00;60274.75;6228250;28;20231;-63
2022/11/02 04:33:37;;;;;;;5.67;3.07;;;;;;;-144.22;100.00;60274.75;6244285;28;20598;-65
2022/11/02 04:36:50;;;;;;;3.23;2.90;;;;;;;-144.22;100.00;60274.75;6249894;28;20235;-65
2022/11/02 04:39:53;;;;;;;5.77;3.43;;;;;;;-144.22;100.00;60274.75;6247293;28;20231;-63
2022/11/02 04:42:55;;;;;;;4.23;2.60;;;;;;;-144.22;100.00;60274.75;6238935;28;20235;-64
2022/11/02 04:45:57;;;;;;;5.87;2.40;;;;;;;-144.22;100.00;60274.75;6240461;28;20587;-64
2022/11/02 04:48:59;;;;;;;4.47;2.80;;;;;;;-144.22;100.00;60274.75;6242500;28;20290;-64
2022/11/02 04:52:04;;;;;;;3.67;2.93;;;;;;;-144.22;100.00;60274.75;6260816;28;20368;-64
2022/11/02 04:55:09;;;;;;;4.20;2.83;;;;;;;-144.22;100.00;60274.75;6256397;28;20717;-64
2022/11/02 04:58:12;;;;;;;5.17;3.00;;;;;;;-144.22;100.00;60274.75;6234481;28;20393;-64
2022/11/02 05:01:15;;;;;;;4.23;3.03;;;;;;;-144.22;100.00;60274.75;6233537;28;20232;-64
2022/11/02 05:04:18;;;;;;;4.03;2.60;;;;;;;-144.22;100.00;60274.75;6234506;28;20706;-64
2022/11/02 05:07:22;;;;;;;4.60;3.00;;;;;;;-144.22;100.00;60274.75;6247229;28;20237;-63
2022/11/02 05:10:24;;;;;;;4.77;2.63;;;;;;;-144.22;100.00;60274.75;6230426;28;20268;-64
2022/11/02 05:13:27;;;;;;;3.53;3.03;;;;;;;-144.22;100.00;60274.75;6240679;28;20242;-63
2022/11/02 05:16:32;;;;;;;4.20;2.17;;;;;;;-144.22;100.00;60274.75;6233866;28;20242;-64
2022/11/02 05:19:35;;;;;;;4.13;3.27;;;;;;;-144.22;100.00;60274.75;6237783;28;20728;-64
2022/11/02 05:22:42;;;;;;;3.70;2.93;;;;;;;-144.22;100.00;60274.75;6234876;28;20228;-65
2022/11/02 05:25:59;;;;;;;4.07;2.73;;;;;;;-144.22;100.00;60274.75;6251684;28;20595;-64
2022/11/02 05:29:02;;;;;;;2.73;2.47;;;;;;;-144.22;100.00;60274.75;6235397;28;20231;-63
2022/11/02 05:32:06;;;;;;;2.53;2.33;;;;;;;-144.22;100.00;60274.75;6241190;28;20330;-63
2022/11/02 05:35:08;;;;;;;4.80;2.50;;;;;;;-144.22;100.00;60274.75;6225523;28;20902;-64
2022/11/02 05:38:12;;;;;;;6.03;3.00;;;;;;;-144.22;100.00;60274.75;6237373;28;20514;-63
2022/11/02 05:41:14;;;;;;;3.67;2.40;;;;;;;-144.22;100.00;60274.75;6231428;28;20591;-64
2022/11/02 05:44:16;;;;;;;6.27;2.67;;;;;;;-144.22;100.00;60274.75;6226723;28;20227;-64
2022/11/02 05:47:19;;;;;;;3.80;2.93;;;;;;;-144.22;100.00;60274.75;6220616;28;20233;-63
2022/11/02 05:50:21;;;;;;;3.83;2.43;;;;;;;-144.22;100.00;60274.75;6238660;28;20381;-64
2022/11/02 05:53:31;;;;;;;3.27;2.73;;;;;;;-144.22;100.00;60274.75;6232946;28;20230;-64
2022/11/02 05:56:34;;;;;;;5.43;4.17;;;;;;;-144.22;100.00;60274.75;6245814;28;20675;-63
2022/11/02 05:59:36;;;;;;;7.57;4.77;;;;;;;-144.22;100.00;60274.75;6239140;28;20330;-63
2022/11/02 06:02:38;;;;;;;7.00;4.63;;;;;;;-144.22;100.00;60274.75;6240728;28;20230;-63
2022/11/02 06:05:40;;;;;;;8.00;5.73;;;;;;;-144.22;100.00;60274.75;6235446;28;20697;-64
2022/11/02 06:08:43;;;;;;;9.67;5.80;;;;;;;-144.22;100.00;60274.75;6242828;28;20753;-64
2022/11/02 06:11:45;;;;;;;9.00;5.80;;;;;;;-144.22;100.00;60274.75;6229539;28;20238;-64
2022/11/02 06:14:47;;;;;;;7.70;5.47;;;;;;;-144.22;100.00;60274.75;6224100;28;20730;-64
2022/11/02 06:17:50;;;;;;;4.80;4.10;;;;;;;-144.22;100.00;60274.75;6217593;28;20229;-64
2022/11/02 06:20:52;;;;;;;7.00;3.97;;;;;;;-144.22;100.00;60274.75;6233951;28;20233;-63
2022/11/02 06:23:54;;;;;;;6.03;3.20;;;;;;;-144.22;100.00;60274.75;6228787;28;20309;-63
2022/11/02 06:26:56;;;;;;;5.57;3.50;;;;;;;-144.22;100.00;60274.75;6247022;28;20230;-63
2022/11/02 06:29:58;;;;;;;4.33;3.40;;;;;;;-144.22;100.00;60274.75;6235232;28;20375;-64
2022/11/02 06:33:00;;;;;;;3.93;3.17;;;;;;;-144.22;100.00;60274.75;6239472;28;20315;-64
2022/11/02 06:36:09;;;;;;;4.87;3.30;;;;;;;-144.22;100.00;60274.75;6243636;28;20241;-63
2022/11/02 06:39:11;;;;;;;7.73;3.47;;;;;;;-144.22;100.00;60274.75;6234343;28;20820;-64
2022/11/02 06:42:14;;;;;;;6.07;3.47;;;;;;;-144.22;100.00;60274.75;6235226;28;20626;-64
2022/11/02 06:45:16;;;;;;;6.07;3.43;;;;;;;-144.22;100.00;60274.75;6237297;28;20220;-64
2022/11/02 06:48:18;;;;;;;7.03;3.70;;;;;;;-144.22;100.00;60274.75;6246494;28;20682;-64
2022/11/02 06:51:20;;;;;;;6.53;4.20;;;;;;;-144.22;100.00;60274.75;6245742;28;20720;-64
2022/11/02 06:54:22;;;;;;;11.27;4.53;;;;;;;-144.22;100.00;60274.75;6240670;28;20364;-64
2022/11/02 06:57:24;;;;;;;5.10;3.90;;;;;;;-144.22;100.00;60274.75;6239213;28;20720;-64
2022/11/02 07:00:28;;;;;;;5.53;4.00;;;;;;;-144.22;100.00;60274.75;6242323;28;20228;-63
2022/11/02 07:03:30;;;;;;;7.93;4.50;;;;;;;-144.22;100.00;60274.75;6240518;28;20686;-63
2022/11/02 07:06:33;;;;;;;8.43;4.20;;;;;;;-144.22;100.00;60274.75;6215874;28;20312;-63
2022/11/02 07:09:35;;;;;;;8.23;5.23;;;;;;;-144.22;100.00;60274.75;6243986;28;20349;-64
2022/11/02 07:12:37;;;;;;;7.90;4.67;;;;;;;-144.22;100.00;60274.75;6229967;28;20241;-64
2022/11/02 07:15:39;;;;;;;9.97;6.70;;;;;;;-144.22;100.00;60274.75;6223863;28;20306;-64
2022/11/02 07:18:41;;;;;;;9.63;5.40;;;;;;;-144.22;100.00;60274.75;6219462;28;20292;-64
2022/11/02 07:21:44;;;;;;;7.80;5.90;;;;;;;-144.22;100.00;60274.75;6245997;28;20254;-64
2022/11/02 07:24:48;;;;;;;11.70;6.17;;;;;;;-144.22;100.00;60274.75;6254075;28;20292;-64
2022/11/02 07:27:50;;;;;;;7.73;5.23;;;;;;;-144.22;100.00;60274.75;6243339;28;20239;-64
2022/11/02 07:30:54;;;;;;;6.47;4.77;;;;;;;-144.22;100.00;60274.75;6243140;28;20339;-65
2022/11/02 07:33:56;;;;;;;9.60;5.43;;;;;;;-144.22;100.00;60274.75;6203438;28;20258;-63
2022/11/02 07:36:58;;;;;;;5.97;5.30;;;;;;;-144.22;100.00;60274.75;6247384;28;20235;-64
2022/11/02 07:40:00;;;;;;;8.67;5.10;;;;;;;-144.22;100.00;60274.75;6224712;28;20573;-64
2022/11/02 07:43:03;;;;;;;6.30;4.70;;;;;;;-144.22;100.00;60274.75;6238313;28;20238;-64
2022/11/02 07:46:13;;;;;;;11.43;5.27;;;;;;;-144.22;100.00;60274.75;6231965;28;20728;-64
2022/11/02 07:49:15;;;;;;;8.17;4.70;;;;;;;-144.22;100.00;60274.75;6216347;28;20372;-64
2022/11/02 07:52:22;;;;;;;9.70;4.13;;;;;;;-144.22;100.00;60274.75;6209021;28;20703;-63
2022/11/02 07:55:27;;;;;;;10.40;4.23;;;;;;;-144.22;100.00;60274.75;6199859;28;20228;-64
2022/11/02 07:58:29;;;;;;;6.03;4.03;;;;;;;-144.22;100.00;60274.75;6206460;28;20283;-63
2022/11/02 08:01:31;;;;;;;8.87;3.63;;;;;;;-144.22;100.00;60274.75;6215963;28;20231;-64
2022/11/02 08:04:34;;;;;;;4.10;3.33;;;;;;;-144.22;100.00;60274.75;6218794;28;20243;-64
2022/11/02 08:07:40;;;;;;;3.33;3.00;;;;;;;-144.22;100.00;60274.75;6206224;28;20228;-63
2022/11/02 08:10:44;;;;;;;5.17;2.80;;;;;;;-144.22;100.00;60274.75;6199002;28;20271;-65
2022/11/02 08:13:46;;;;;;;11.90;3.40;;;;;;;-144.22;100.00;60274.75;6211280;28;20240;-64
2022/11/02 08:16:51;;;;;;;7.43;3.10;;;;;;;-144.22;100.00;60274.75;6211524;28;20240;-64
2022/11/02 08:19:53;;;;;;;5.30;2.83;;;;;;;-144.22;100.00;60274.75;6220297;28;20839;-64
2022/11/02 08:22:55;;;;;;;5.00;3.10;;;;;;;-144.22;100.00;60274.75;6223951;28;20228;-64
2022/11/02 08:25:58;;;;;;;4.87;3.10;;;;;;;-144.22;100.00;60274.75;6216982;28;20243;-63
2022/11/02 08:29:01;;;;;;;6.37;2.83;;;;;;;-144.22;100.00;60274.75;6226275;28;20228;-65
2022/11/02 08:32:03;;;;;;;4.40;2.33;;;;;;;-144.22;100.00;60274.75;6207243;28;20255;-66
2022/11/02 08:35:06;;;;;;;6.07;2.03;;;;;;;-144.22;100.00;60274.75;6217535;28;20367;-65
2022/11/02 08:38:09;;;;;;;3.67;1.97;;;;;;;-144.22;100.00;60274.75;6207585;28;20236;-63
2022/11/02 08:41:11;;;;;;;3.90;1.77;;;;;;;-144.22;100.00;60274.75;6226348;28;20224;-65
2022/11/02 08:44:13;;;;;;;6.37;2.03;;;;;;;-144.22;100.00;60274.75;6204361;28;20240;-65
2022/11/02 08:47:17;;;;;;;5.00;2.13;;;;;;;-144.22;100.00;60274.75;6212075;28;20724;-64
2022/11/02 08:50:20;;;;;;;4.17;2.10;;;;;;;-144.22;100.00;60274.75;6235114;28;20612;-64
2022/11/02 08:53:22;;;;;;;2.20;1.60;;;;;;;-144.22;100.00;60274.75;6247195;28;20227;-65
2022/11/02 08:56:26;;;;;;;6.33;2.67;;;;;;;-144.22;100.00;60274.75;6236339;28;20250;-66
2022/11/02 08:59:28;;;;;;;3.23;1.83;;;;;;;-144.22;100.00;60274.75;6236771;28;20231;-64
2022/11/02 09:02:30;;;;;;;3.30;1.87;;;;;;;-144.22;100.00;60274.75;6246197;28;20313;-64
2022/11/02 09:05:43;;;;;;;5.40;1.83;;;;;;;-144.22;100.00;60274.75;6233290;28;20234;-64
2022/11/02 09:08:46;;;;;;;4.93;1.90;;;;;;;-144.22;100.00;60274.75;6235829;28;20706;-66
2022/11/02 09:11:49;;;;;;;4.33;2.10;;;;;;;-144.22;100.00;60274.75;6246211;28;20240;-65
2022/11/02 09:14:51;;;;;;;2.27;1.50;;;;;;;-144.22;100.00;60274.75;6235327;28;20261;-64
2022/11/02 09:17:53;;;;;;;4.13;1.90;;;;;;;-144.22;100.00;60274.75;6234529;28;20314;-65
2022/11/02 09:20:55;;;;;;;1.70;1.57;;;;;;;-144.22;100.00;60274.75;6235147;28;20322;-65
2022/11/02 09:23:57;;;;;;;3.80;1.43;;;;;;;-144.22;100.00;60274.75;6247037;28;20227;-65
2022/11/02 09:26:59;;;;;;;3.00;1.43;;;;;;;-144.22;100.00;60274.75;6235789;28;20228;-65
2022/11/02 09:30:03;;;;;;;3.20;1.37;;;;;;;-144.22;100.00;60274.75;6250656;28;20234;-64
2022/11/02 09:33:06;;;;;;;2.10;1.20;;;;;;;-144.22;100.00;60274.75;6241744;28;20289;-67
2022/11/02 09:36:09;;;;;;;3.43;1.30;;;;;;;-144.22;100.00;60274.75;6251880;28;20291;-64
2022/11/02 09:39:11;;;;;;;4.47;1.57;;;;;;;-144.22;100.00;60274.75;6241695;28;20226;-64
2022/11/02 09:42:53;;;;;;;4.13;1.40;;;;;;;-144.22;100.00;60274.75;6248452;28;20207;-67
2022/11/02 09:46:02;;;;;;;4.50;1.70;;;;;;;-144.22;100.00;60274.75;6257363;28;20620;-64
2022/11/02 09:49:17;;;;;;;3.20;1.83;;;;;;;-144.22;100.00;60274.75;6249619;28;20591;-64
2022/11/02 09:52:37;;;;;;;3.03;1.60;;;;;;;-144.22;100.00;60274.75;6241090;28;20251;-64
2022/11/02 09:55:44;;;;;;;3.53;1.40;;;;;;;-144.22;100.00;60274.75;6232735;28;20240;-64
2022/11/02 09:58:54;;;;;;;2.90;1.30;;;;;;;-144.22;100.00;60274.75;6249238;28;20235;-65
2022/11/02 10:02:33;;;;;;;2.20;1.27;;;;;;;-144.22;100.00;60274.75;6251413;28;20377;-64
2022/11/02 10:06:03;;;;;;;1.83;1.10;;;;;;;-144.22;100.00;60274.75;6236205;28;20346;-64
2022/11/02 10:09:15;;;;;;;3.53;1.20;;;;;;;-144.22;100.00;60274.75;6243773;28;20613;-66
2022/11/02 10:12:28;;;;;;;2.57;1.20;;;;;;;-144.22;100.00;60274.75;6240971;28;20591;-65
2022/11/02 10:15:39;;;;;;;4.00;1.03;;;;;;;-144.22;100.00;60274.75;6246200;28;20239;-65
2022/11/02 10:18:42;;;;;;;2.50;1.17;;;;;;;-144.22;100.00;60274.75;6242100;28;20227;-65
2022/11/02 10:21:48;;;;;;;2.67;1.43;;;;;;;-144.22;100.00;60274.75;6205971;28;20235;-65
2022/11/02 10:24:53;;;;;;;2.83;1.30;;;;;;;-144.22;100.00;60274.75;6226375;28;20224;-66
2022/11/02 10:28:17;;;;;;;4.03;1.70;;;;;;;-144.22;100.00;60274.75;6210365;28;20376;-64
2022/11/02 10:31:31;;;;;;;4.40;1.17;;;;;;;-144.22;100.00;60274.75;6244352;28;20231;-64
2022/11/02 10:34:33;;;;;;;1.90;1.00;;;;;;;-144.22;100.00;60274.75;6226844;28;20234;-65
2022/11/02 10:38:09;;;;;;;4.13;1.40;;;;;;;-144.22;100.00;60274.75;6237061;28;20239;-64
2022/11/02 10:41:32;;;;;;;4.30;1.30;;;;;;;-144.22;100.00;60274.75;6248792;28;20715;-65
2022/11/02 10:44:41;;;;;;;2.43;1.53;;;;;;;-144.22;100.00;60274.75;6243499;28;20297;-64
2022/11/02 10:47:58;;;;;;;1.77;1.40;;;;;;;-144.22;100.00;60274.75;6233822;28;20240;-64
2022/11/02 10:51:11;;;;;;;3.27;1.57;;;;;;;-144.22;100.00;60274.75;6241294;28;20583;-64
2022/11/02 10:54:15;;;;;;;3.90;1.30;;;;;;;-144.22;100.00;60274.75;6218305;28;20343;-64
2022/11/02 10:57:25;;;;;;;4.00;1.30;;;;;;;-144.22;100.00;60274.75;6244936;28;20229;-65
2022/11/02 11:00:36;;;;;;;3.63;1.60;;;;;;;-144.22;100.00;60274.75;6248807;28;20233;-64
2022/11/02 11:04:03;;;;;;;2.90;1.30;;;;;;;-144.22;100.00;60274.75;6241307;28;20231;-65
2022/11/02 11:07:19;;;;;;;2.37;1.27;;;;;;;-144.22;100.00;60274.75;6226387;28;20994;-64
2022/11/02 11:10:23;;;;;;;2.53;1.40;;;;;;;-144.22;100.00;60274.75;6236965;28;20232;-65
2022/11/02 11:13:27;;;;;;;3.40;1.60;;;;;;;-144.22;100.00;60274.75;6228064;28;20271;-64
2022/11/02 11:16:54;;;;;;;3.57;1.60;;;;;;;-144.22;100.00;60274.75;6234824;28;20695;-64
2022/11/02 11:19:57;;;;;;;3.70;1.50;;;;;;;-144.22;100.00;60274.75;6237994;28;20577;-63
2022/11/02 11:23:18;;;;;;;3.57;1.50;;;;;;;-144.22;100.00;60274.75;6235194;28;20235;-63
2022/11/02 11:26:30;;;;;;;4.97;1.77;;;;;;;-144.22;100.00;60274.75;6232892;28;20223;-64
2022/11/02 11:29:36;;;;;;;5.30;2.10;;;;;;;-144.22;100.00;60274.75;6211851;28;20250;-64
2022/11/02 11:32:46;;;;;;;4.30;1.70;;;;;;;-144.22;100.00;60274.75;6244094;28;20289;-63
2022/11/02 11:35:49;;;;;;;1.83;1.60;;;;;;;-144.22;100.00;60274.75;6242393;28;20602;-64
2022/11/02 11:38:54;;;;;;;2.60;1.30;;;;;;;-144.22;100.00;60274.75;6236244;28;20226;-64
2022/11/02 11:41:58;;;;;;;3.37;1.77;;;;;;;-144.22;100.00;60274.75;6247975;28;20233;-64
2022/11/02 11:45:06;;;;;;;2.23;1.97;;;;;;;-144.22;100.00;60274.75;6214558;28;20246;-64
2022/11/02 11:48:34;;;;;;;6.07;2.20;;;;;;;-144.22;100.00;60274.75;6222154;28;20716;-64
2022/11/02 11:51:43;;;;;;;2.47;1.63;;;;;;;-144.22;100.00;60274.75;6243126;28;20232;-65
2022/11/02 11:54:56;;;;;;;4.03;1.77;;;;;;;-144.22;100.00;60274.75;6228374;28;20250;-64
2022/11/02 11:58:18;;;;;;;3.97;1.70;;;;;;;-144.22;100.00;60274.75;6217928;28;20695;-65
2022/11/02 12:01:20;;;;;;;3.53;1.50;;;;;;;-144.22;100.00;60274.75;6239057;28;20243;-65
2022/11/02 12:04:35;;;;;;;4.03;2.17;;;;;;;-144.22;100.00;60274.75;6225410;28;20284;-64
2022/11/02 12:07:56;;;;;;;3.17;2.10;;;;;;;-144.22;100.00;60274.75;6237110;28;20558;-64
2022/11/02 12:11:18;;;;;;;3.33;1.90;;;;;;;-144.22;100.00;60274.75;6231620;28;20532;-65
2022/11/02 12:14:48;;;;;;;3.87;1.67;;;;;;;-144.22;100.00;60274.75;6244766;28;20230;-65
2022/11/02 12:18:10;;;;;;;3.23;1.87;;;;;;;-144.22;100.00;60274.75;6246288;28;20238;-64
2022/11/02 12:21:34;;;;;;;3.43;1.70;;;;;;;-144.22;100.00;60274.75;6247259;28;20716;-65
2022/11/02 12:24:54;;;;;;;3.50;1.40;;;;;;;-144.22;100.00;60274.75;6245149;28;22283;-64
2022/11/02 12:28:18;;;;;;;4.53;2.03;;;;;;;-144.22;100.00;60274.75;6234462;28;20642;-64
2022/11/02 12:31:37;;;;;;;4.73;1.47;;;;;;;-144.22;100.00;60274.75;6234948;28;20686;-66
2022/11/02 12:34:48;;;;;;;3.83;1.63;;;;;;;-144.22;100.00;60274.75;6222843;28;20842;-65
2022/11/02 12:38:51;;;;;;;2.10;1.33;;;;;;;-144.22;100.00;60274.75;6239512;28;20219;-64
2022/11/02 12:42:01;;;;;;;2.50;1.57;;;;;;;-144.22;100.00;60274.75;6157931;28;20591;-65
2022/11/02 12:45:16;;;;;;;2.63;1.53;;;;;;;-144.22;100.00;60274.75;6155918;28;20280;-65
2022/11/02 12:48:48;;;;;;;3.33;1.73;;;;;;;-144.22;100.00;60274.75;6136566;28;20808;-64
2022/11/02 12:52:04;;;;;;;4.83;1.40;;;;;;;-144.22;100.00;60274.75;6153172;28;20885;-65
2022/11/02 12:55:15;;;;;;;3.20;1.60;;;;;;;-144.22;100.00;60274.75;6156038;28;20273;-65
2022/11/02 12:58:26;;;;;;;5.73;1.50;;;;;;;-144.22;100.00;60274.75;6118715;28;20238;-64
2022/11/02 13:01:41;;;;;;;4.17;1.50;;;;;;;-144.22;100.00;60274.75;6156770;28;20785;-64
2022/11/02 13:04:52;;;;;;;2.20;1.40;;;;;;;-144.22;100.00;60274.75;6134535;28;20328;-65
2022/11/02 13:08:07;;;;;;;2.80;1.10;;;;;;;-144.22;100.00;60274.75;6147544;28;20261;-65
2022/11/02 13:11:29;;;;;;;3.23;1.70;;;;;;;-144.22;100.00;60274.75;6167925;28;20392;-64
2022/11/02 13:14:40;;;;;;;3.43;1.40;;;;;;;-144.22;100.00;60274.75;6249087;28;20254;-64
2022/11/02 13:18:04;;;;;;;3.07;1.40;;;;;;;-144.22;100.00;60274.75;6240931;28;20231;-65
2022/11/02 13:21:10;;;;;;;1.87;1.13;;;;;;;-144.22;100.00;60274.75;6245471;28;20215;-65
2022/11/02 13:24:19;;;;;;;1.50;1.33;;;;;;;-144.22;100.00;60274.75;6232124;28;20710;-64
2022/11/02 13:27:47;;;;;;;2.97;1.23;;;;;;;-144.22;100.00;60274.75;6245371;28;20232;-64
2022/11/02 13:30:50;;;;;;;3.00;1.27;;;;;;;-144.22;100.00;60274.75;6242455;28;20235;-65
2022/11/02 13:33:55;;;;;;;4.23;1.30;;;;;;;-144.22;100.00;60274.75;6214640;28;20287;-65
2022/11/02 13:37:05;;;;;;;4.63;1.77;;;;;;;-144.22;100.00;60274.75;6245898;28;20246;-64
2022/11/02 13:40:33;;;;;;;7.03;1.50;;;;;;;-144.22;100.00;60274.75;6236467;28;20234;-64
2022/11/02 13:44:22;;;;;;;2.17;1.10;;;;;;;-144.22;100.00;60274.75;6229926;28;20418;-66
2022/11/02 13:47:39;;;;;;;2.03;0.93;;;;;;;-144.22;100.00;60274.75;6208193;28;20331;-63
2022/11/02 13:50:52;;;;;;;4.60;1.40;;;;;;;-144.22;100.00;60274.75;6230153;28;20238;-64
2022/11/02 13:54:32;;;;;;;3.07;1.20;;;;;;;-144.22;100.00;60274.75;6246816;28;20254;-64
2022/11/02 13:57:43;;;;;;;1.87;0.93;;;;;;;-144.22;100.00;60274.75;6226907;28;20703;-64
2022/11/02 14:00:45;;;;;;;4.67;1.27;;;;;;;-144.22;100.00;60274.75;6233045;28;20726;-65
2022/11/02 14:04:00;;;;;;;4.00;1.23;;;;;;;-144.22;100.00;60274.75;6244153;28;20702;-64
2022/11/02 14:07:08;;;;;;;3.17;1.30;;;;;;;-144.22;100.00;60274.75;6246279;28;20711;-64
2022/11/02 14:10:18;;;;;;;5.77;1.30;;;;;;;-144.22;100.00;60274.75;6253183;28;20319;-64
2022/11/02 14:13:52;;;;;;;2.83;1.30;;;;;;;-144.22;100.00;60274.75;6224701;28;20239;-64
2022/11/02 14:16:57;;;;;;;2.00;1.10;;;;;;;-144.22;100.00;60274.75;6230895;28;20238;-64
2022/11/02 14:20:03;;;;;;;3.53;1.27;;;;;;;-144.22;100.00;60274.75;6239148;28;20317;-65
2022/11/02 14:23:08;;;;;;;2.93;1.30;;;;;;;-144.22;100.00;60274.75;6242474;28;20689;-64
2022/11/02 14:26:31;;;;;;;1.80;1.37;;;;;;;-144.22;100.00;60274.75;6236474;28;20702;-64
2022/11/02 14:29:45;;;;;;;2.00;1.27;;;;;;;-144.22;100.00;60274.75;6253551;28;20748;-64